Hovedside
METAR-TAF:

METAR-TAF

Lufthavner :

Stauning lufthavn

Ringkøbing-Skjern, Danmark

breddegrad: 56-00N, lengdegrad: 008-21E, høyde over havet: 5 m

Gjeldene værobservasjon

Denne rapporten ble laget for 2 timer og 53 minutter siden, klokken 12:50 UTC
Vind 18 kt fra Øst-sørøst
Temperatur 17°C
Luftfuktighet 34%
Trykk 1035 hPa
Sikt 10 km eller mer
ingen skyer under 1500 m og ingen bygeskyer

METAR: EKVJ 181250Z 11018KT CAVOK 17/01 Q1035

Tid: 17:43 (15:43 UTC)

Varsel

Denne rapporten ble laget for 6 timer og 45 minutter siden, klokken 08:58 UTC
Varsel gyldig fra 18. klokken 09 UTC til 18. klokken 15 UTC
Vind 10 kt fra Øst
Sikt 10 km eller mer
ingen skyer under 1500 m og ingen bygeskyer

TAF: EKVJ 180858Z 1809/1815 10010KT CAVOK

Værobservasjoner og værvarsel for over 4000 flyplasser (METAR- og TAF-rapporter).

Tilgjengelige stasjoner er representert av de røde og gule prikkene på kartet.

Hold musepekeren over prikken for å se navnet på stasjonen.

Klikk så for å se værobservasjoner og -varsler.

For å forandre kartet kan du klikke på den grønne knappen med svart kryss for å zoome inn, på den grønne knappen med strek for å zoome ut, eller på de grønne pilene for å se tilstøtende kart.


METAR-TAF: